createdAt,value
2018-11-21T00:02:07.641Z,43.90
2018-11-21T00:04:37.669Z,44.37
2018-11-21T00:07:07.482Z,43.73
2018-11-21T00:09:37.292Z,45.03
2018-11-21T00:12:07.178Z,43.47
2018-11-21T00:14:38.535Z,43.17
2018-11-21T00:17:08.498Z,43.67
2018-11-21T00:19:39.332Z,43.13
2018-11-21T00:22:09.215Z,43.33
2018-11-21T00:24:39.036Z,44.70
2018-11-21T00:27:11.001Z,42.50
2018-11-21T00:29:40.834Z,43.37
2018-11-21T00:32:26.723Z,44.53
2018-11-21T00:34:56.793Z,42.87
2018-11-21T00:37:27.648Z,43.23
2018-11-21T00:39:57.491Z,43.47
2018-11-21T00:42:29.915Z,43.63
2018-11-21T00:45:00.211Z,43.03
2018-11-21T00:47:30.492Z,43.60
2018-11-21T00:50:00.755Z,43.00
2018-11-21T00:52:30.634Z,43.03
2018-11-21T00:55:00.536Z,43.33
2018-11-21T00:57:30.657Z,43.70
2018-11-21T01:00:00.353Z,43.40
2018-11-21T01:02:30.291Z,43.33
2018-11-21T01:05:00.113Z,42.80
2018-11-21T01:07:30.420Z,43.87
2018-11-21T01:10:02.610Z,41.97
2018-11-21T01:12:32.484Z,42.93
2018-11-21T01:15:02.278Z,42.23
2018-11-21T01:17:32.036Z,43.70
2018-11-21T01:20:01.932Z,43.30
2018-11-21T01:22:31.970Z,42.87
2018-11-21T01:25:01.901Z,43.50
2018-11-21T01:27:31.676Z,42.40
2018-11-21T01:30:01.636Z,42.90
2018-11-21T01:32:31.527Z,43.07
2018-11-21T01:35:01.343Z,43.17
2018-11-21T01:37:31.234Z,43.50
2018-11-21T01:40:03.311Z,42.93
2018-11-21T01:42:36.056Z,44.30
2018-11-21T01:45:06.006Z,42.00
2018-11-21T01:47:36.137Z,43.23
2018-11-21T01:50:06.821Z,41.97
2018-11-21T01:52:36.759Z,43.23
2018-11-21T01:55:07.129Z,42.40
2018-11-21T01:57:37.093Z,43.73
2018-11-21T02:00:09.380Z,44.30
2018-11-21T02:02:39.441Z,43.53
2018-11-21T02:05:09.409Z,43.20
2018-11-21T02:07:39.337Z,44.30
2018-11-21T02:10:09.584Z,42.30
2018-11-21T02:12:39.382Z,43.57
2018-11-21T02:15:09.684Z,43.10
2018-11-21T02:17:39.649Z,42.67
2018-11-21T02:20:12.280Z,42.37
2018-11-21T02:22:42.537Z,42.53
2018-11-21T02:25:12.353Z,44.43
2018-11-21T02:27:42.234Z,42.67
2018-11-21T02:30:12.154Z,42.47
2018-11-21T02:32:42.001Z,41.97
2018-11-21T02:35:11.750Z,42.70
2018-11-21T02:37:41.595Z,42.20
2018-11-21T02:40:11.413Z,44.17
2018-11-21T02:42:41.311Z,43.70
2018-11-21T02:45:11.133Z,43.70
2018-11-21T02:47:41.080Z,41.17
2018-11-21T02:50:13.372Z,42.43
2018-11-21T02:52:43.224Z,42.13
2018-11-21T02:55:13.074Z,43.23
2018-11-21T02:57:42.958Z,42.70
2018-11-21T03:00:19.433Z,42.23
2018-11-21T03:02:49.382Z,41.90
2018-11-21T03:05:19.430Z,42.03
2018-11-21T03:07:53.131Z,42.20
2018-11-21T03:10:23.766Z,42.80
2018-11-21T03:12:53.753Z,42.13
2018-11-21T03:15:23.629Z,41.90
2018-11-21T03:17:53.537Z,42.13
2018-11-21T03:20:26.048Z,41.37
2018-11-21T03:22:55.947Z,43.03
2018-11-21T03:25:25.743Z,44.20
2018-11-21T03:27:55.658Z,42.73
2018-11-21T03:30:25.479Z,42.97
2018-11-21T03:32:55.305Z,43.87
2018-11-21T03:35:25.206Z,43.23
2018-11-21T03:37:55.237Z,44.67
2018-11-21T03:40:25.225Z,46.17
2018-11-21T03:42:55.251Z,44.77
2018-11-21T03:45:25.186Z,45.23
2018-11-21T03:47:54.971Z,43.90
2018-11-21T03:50:24.907Z,45.33
2018-11-21T03:52:54.707Z,43.83
2018-11-21T03:55:24.631Z,44.40
2018-11-21T03:57:54.542Z,44.73
2018-11-21T04:00:24.382Z,44.53
2018-11-21T04:02:54.164Z,45.13
2018-11-21T04:05:24.081Z,45.50
2018-11-21T04:07:54.050Z,44.80
2018-11-21T04:10:24.026Z,45.50
2018-11-21T04:12:53.800Z,45.80
2018-11-21T04:15:23.633Z,44.30
2018-11-21T04:17:53.795Z,45.40
2018-11-21T04:20:23.574Z,44.93
2018-11-21T04:22:53.519Z,45.63
2018-11-21T04:25:23.499Z,44.90
2018-11-21T04:27:53.309Z,46.40
2018-11-21T04:30:23.125Z,45.43
2018-11-21T04:32:53.034Z,45.40
2018-11-21T04:35:23.059Z,45.10
2018-11-21T04:37:53.053Z,45.63
2018-11-21T04:40:22.781Z,44.90
2018-11-21T04:42:52.705Z,46.23
2018-11-21T04:45:22.661Z,45.93
2018-11-21T04:47:52.539Z,46.93
2018-11-21T04:50:22.344Z,46.80
2018-11-21T05:01:28.385Z,47.37
2018-11-21T05:03:58.403Z,47.67
2018-11-21T05:06:28.452Z,48.17
2018-11-21T05:08:59.709Z,49.00
2018-11-21T05:11:29.478Z,48.87
2018-11-21T05:13:59.388Z,46.87
2018-11-21T05:16:29.429Z,47.03
2018-11-21T05:18:59.227Z,46.73
2018-11-21T05:21:29.039Z,47.63
2018-11-21T05:23:59.095Z,46.97
2018-11-21T05:26:28.925Z,45.57
2018-11-21T05:28:58.782Z,47.40
2018-11-21T05:31:28.634Z,47.03
2018-11-21T05:33:58.514Z,46.90
2018-11-21T05:36:28.339Z,48.00
2018-11-21T05:38:58.161Z,45.90
2018-11-21T05:41:28.058Z,47.50
2018-11-21T05:43:58.075Z,46.83
2018-11-21T05:46:28.029Z,46.30
2018-11-21T05:48:57.795Z,47.83
2018-11-21T05:51:27.711Z,47.30
2018-11-21T05:53:57.821Z,47.87
2018-11-21T05:56:27.660Z,47.37
2018-11-21T05:58:57.530Z,46.87
2018-11-21T06:01:27.403Z,47.77
2018-11-21T06:03:57.422Z,49.23
2018-11-21T06:06:27.339Z,48.00
2018-11-21T06:08:57.367Z,48.23
2018-11-21T06:11:27.228Z,49.90
2018-11-21T06:13:57.267Z,48.63
2018-11-21T06:16:27.188Z,48.63
2018-11-21T06:18:58.925Z,50.03
2018-11-21T06:21:28.760Z,49.37
2018-11-21T06:23:58.684Z,47.90
2018-11-21T06:26:28.573Z,48.97
2018-11-21T06:28:59.168Z,47.00
2018-11-21T06:31:29.813Z,48.33
2018-11-21T06:33:59.646Z,49.00
2018-11-21T06:36:29.502Z,49.57
2018-11-21T06:38:59.598Z,48.53
2018-11-21T06:41:29.586Z,48.40
2018-11-21T06:43:59.515Z,48.67
2018-11-21T06:46:29.548Z,48.40
2018-11-21T06:48:59.436Z,48.40
2018-11-21T06:51:31.870Z,47.10
2018-11-21T06:53:59.312Z,47.87
2018-11-21T06:56:29.289Z,47.90
2018-11-21T06:58:59.307Z,47.20
2018-11-21T07:01:29.242Z,47.13
2018-11-21T07:03:59.147Z,46.37
2018-11-21T07:06:28.945Z,46.40
2018-11-21T07:08:58.871Z,47.93
2018-11-21T07:11:28.860Z,47.50
2018-11-21T07:13:58.704Z,45.93
2018-11-21T07:16:28.604Z,46.77
2018-11-21T07:18:58.365Z,47.27
2018-11-21T07:21:28.241Z,46.37
2018-11-21T07:23:58.514Z,46.70
2018-11-21T07:26:28.419Z,46.07
2018-11-21T07:28:58.259Z,46.43
2018-11-21T07:31:28.239Z,47.70
2018-11-21T07:33:58.115Z,46.57
2018-11-21T07:36:28.191Z,45.80
2018-11-21T07:38:58.085Z,46.80
2018-11-21T07:41:28.737Z,46.93
2018-11-21T07:43:58.499Z,45.60
2018-11-21T07:46:28.443Z,46.17
2018-11-21T07:48:58.524Z,46.57
2018-11-21T07:51:28.367Z,46.60
2018-11-21T07:53:58.277Z,46.87
2018-11-21T07:57:26.927Z,46.23
2018-11-21T08:00:51.081Z,45.03
2018-11-21T08:03:21.470Z,46.17
2018-11-21T08:05:56.737Z,46.97
2018-11-21T08:08:46.595Z,45.83
2018-11-21T08:11:37.984Z,45.80
2018-11-21T08:14:41.765Z,47.03
2018-11-21T08:17:28.839Z,47.37
2018-11-21T08:20:12.177Z,48.33
2018-11-21T08:22:59.480Z,47.23
2018-11-21T08:25:48.439Z,47.67
2018-11-21T08:28:23.183Z,46.23
2018-11-21T08:30:53.097Z,46.83
2018-11-21T08:33:22.913Z,47.40
2018-11-21T08:35:52.766Z,47.47
2018-11-21T08:38:22.458Z,47.67
2018-11-21T08:40:52.449Z,46.90
2018-11-21T08:43:22.314Z,47.73
2018-11-21T08:45:52.479Z,48.57
2018-11-21T08:48:22.703Z,46.80
2018-11-21T08:50:52.739Z,49.33
2018-11-21T08:53:22.533Z,49.00
2018-11-21T08:55:52.338Z,49.03
2018-11-21T08:58:22.393Z,50.57
2018-11-21T09:00:52.374Z,50.47
2018-11-21T09:03:22.122Z,48.83
2018-11-21T09:05:52.013Z,50.03
2018-11-21T09:08:22.159Z,50.53
2018-11-21T09:10:52.756Z,50.73
2018-11-21T09:13:22.273Z,49.87
2018-11-21T09:15:52.079Z,51.80
2018-11-21T09:18:21.911Z,49.63
2018-11-21T09:20:51.700Z,50.93
2018-11-21T09:23:21.521Z,49.17
2018-11-21T09:25:51.897Z,50.03
2018-11-21T09:28:22.509Z,50.70
2018-11-21T09:30:52.493Z,48.97
2018-11-21T09:33:22.306Z,51.43
2018-11-21T09:35:52.121Z,51.47
2018-11-21T09:38:22.511Z,48.70
2018-11-21T09:40:52.701Z,50.73
2018-11-21T09:43:22.699Z,49.50
2018-11-21T09:45:52.494Z,48.37
2018-11-21T09:48:22.443Z,49.37
2018-11-21T09:50:52.269Z,48.27
2018-11-21T09:53:22.144Z,49.07
2018-11-21T09:55:52.079Z,49.13
2018-11-21T09:58:21.984Z,47.77
2018-11-21T10:01:46.479Z,48.73
2018-11-21T10:04:16.390Z,48.23
2018-11-21T10:06:47.217Z,48.33
2018-11-21T10:09:19.717Z,47.33
2018-11-21T10:11:51.764Z,47.83
2018-11-21T10:14:21.879Z,48.10
2018-11-21T10:16:52.066Z,47.77
2018-11-21T10:19:22.110Z,48.40
2018-11-21T10:21:52.133Z,48.03
2018-11-21T10:24:21.980Z,47.23
2018-11-21T10:26:52.711Z,48.23
2018-11-21T10:29:22.492Z,46.13
2018-11-21T10:31:53.355Z,47.03
2018-11-21T10:34:23.252Z,47.90
2018-11-21T10:36:53.065Z,47.23
2018-11-21T10:39:22.997Z,47.17
2018-11-21T10:41:52.892Z,47.70
2018-11-21T10:44:22.802Z,46.47
2018-11-21T10:46:52.763Z,47.33
2018-11-21T10:49:22.530Z,47.60
2018-11-21T10:51:52.346Z,47.07
2018-11-21T10:54:22.276Z,46.50
2018-11-21T10:56:52.134Z,45.70
2018-11-21T10:59:21.981Z,43.70
2018-11-21T11:02:09.311Z,45.73
2018-11-21T11:04:47.011Z,47.63
2018-11-21T11:07:54.203Z,46.63
2018-11-21T11:10:46.012Z,44.50
2018-11-21T11:13:35.448Z,44.30
2018-11-21T11:16:23.779Z,45.97
2018-11-21T11:19:13.944Z,46.47
2018-11-21T11:22:01.124Z,46.57
2018-11-21T11:24:55.702Z,45.70
2018-11-21T11:27:43.602Z,45.60
2018-11-21T11:30:33.307Z,45.03
2018-11-21T11:33:29.956Z,45.53
2018-11-21T11:36:15.792Z,44.43
2018-11-21T11:39:03.668Z,45.13
2018-11-21T11:41:53.032Z,45.63
2018-11-21T11:44:44.792Z,44.23
2018-11-21T11:47:39.491Z,44.30
2018-11-21T11:50:34.878Z,44.50
2018-11-21T11:53:29.723Z,44.43
2018-11-21T11:56:15.424Z,44.60
2018-11-21T11:59:13.693Z,44.30
2018-11-21T12:02:05.531Z,44.40
2018-11-21T12:04:50.935Z,43.33
2018-11-21T12:07:50.802Z,45.20
2018-11-21T12:10:38.396Z,43.53
2018-11-21T12:13:26.285Z,43.77
2018-11-21T12:16:20.820Z,43.10
2018-11-21T12:19:08.100Z,44.30
2018-11-21T12:21:55.715Z,43.90
2018-11-21T12:24:46.333Z,44.23
2018-11-21T12:27:37.670Z,43.90
2018-11-21T12:30:29.401Z,43.63
2018-11-21T12:33:17.007Z,44.63
2018-11-21T12:36:04.480Z,43.83
2018-11-21T12:38:57.159Z,45.03
2018-11-21T12:41:52.285Z,43.83
2018-11-21T12:44:38.328Z,44.60
2018-11-21T12:47:43.130Z,43.93
2018-11-21T12:50:34.155Z,45.20
2018-11-21T12:53:23.405Z,44.03
2018-11-21T12:56:30.506Z,44.77
2018-11-21T12:59:11.556Z,45.47
2018-11-21T13:01:56.258Z,45.60
2018-11-21T13:04:36.374Z,44.30
2018-11-21T13:07:23.720Z,44.87
2018-11-21T13:10:24.237Z,44.27
2018-11-21T13:13:15.703Z,45.77
2018-11-21T13:16:04.567Z,45.43
2018-11-21T13:19:02.283Z,44.57
2018-11-21T13:21:54.085Z,45.37
2018-11-21T13:24:42.373Z,45.73
2018-11-21T13:27:33.872Z,44.70
2018-11-21T13:30:22.826Z,45.80
2018-11-21T13:33:11.670Z,45.20
2018-11-21T13:36:03.051Z,45.83
2018-11-21T13:38:54.842Z,45.23
2018-11-21T13:41:42.348Z,44.50
2018-11-21T13:44:29.867Z,44.97
2018-11-21T13:47:28.659Z,43.77
2018-11-21T13:50:20.388Z,44.57
2018-11-21T13:53:12.096Z,43.37
2018-11-21T13:55:42.017Z,44.30
2018-11-21T13:58:11.782Z,43.43
2018-11-21T14:00:41.891Z,44.57
2018-11-21T14:03:11.848Z,45.37
2018-11-21T14:05:43.195Z,45.17
2018-11-21T14:08:13.105Z,45.20
2018-11-21T14:10:42.881Z,45.33
2018-11-21T14:13:15.195Z,43.80
2018-11-21T14:15:45.324Z,43.43
2018-11-21T14:18:15.179Z,43.87
2018-11-21T14:20:47.309Z,42.67
2018-11-21T14:23:17.719Z,45.10
2018-11-21T14:25:47.547Z,44.17
2018-11-21T14:28:17.434Z,43.93
2018-11-21T14:30:47.262Z,44.40
2018-11-21T14:33:17.182Z,42.93
2018-11-21T14:35:52.296Z,44.50
2018-11-21T14:38:21.833Z,44.07
2018-11-21T14:40:51.595Z,43.87
2018-11-21T14:43:21.513Z,43.83
2018-11-21T14:45:51.253Z,42.87
2018-11-21T14:48:21.047Z,43.00
2018-11-21T14:50:51.905Z,43.07
2018-11-21T14:53:21.798Z,43.27
2018-11-21T14:55:51.623Z,44.60
2018-11-21T14:58:21.434Z,43.67
2018-11-21T15:00:51.252Z,44.00
2018-11-21T15:03:21.248Z,43.47
2018-11-21T15:05:51.043Z,44.33
2018-11-21T15:08:21.003Z,43.90
2018-11-21T15:10:50.906Z,45.03
2018-11-21T15:13:20.808Z,43.00
2018-11-21T15:15:50.740Z,44.37
2018-11-21T15:18:20.621Z,43.73
2018-11-21T15:20:50.842Z,45.60
2018-11-21T15:23:20.961Z,43.77
2018-11-21T15:25:50.888Z,44.17
2018-11-21T15:28:20.691Z,44.03
2018-11-21T15:30:50.785Z,43.97
2018-11-21T15:33:21.092Z,44.97
2018-11-21T15:35:50.979Z,44.17
2018-11-21T15:38:20.988Z,44.30
2018-11-21T15:40:51.665Z,44.50
2018-11-21T15:43:22.645Z,43.53
2018-11-21T15:45:52.585Z,44.03
2018-11-21T15:48:22.376Z,44.77
2018-11-21T15:50:52.319Z,44.47
2018-11-21T15:53:22.233Z,44.63
2018-11-21T15:55:52.120Z,44.60
2018-11-21T15:58:22.153Z,45.40
